createdAt,value
2022-08-26T00:01:54.100Z,90.04
2022-08-26T00:06:27.439Z,90.10
2022-08-26T00:11:00.388Z,90.14
2022-08-26T00:15:47.710Z,90.19
2022-08-26T00:20:20.695Z,90.21
2022-08-26T00:24:53.505Z,90.10
2022-08-26T00:29:40.083Z,90.08
2022-08-26T00:34:20.136Z,90.00
2022-08-26T00:39:06.588Z,89.85
2022-08-26T00:43:53.676Z,89.82
2022-08-26T00:48:46.662Z,89.78
2022-08-26T00:53:23.974Z,89.72
2022-08-26T00:58:12.738Z,89.62
2022-08-26T01:02:54.610Z,89.81
2022-08-26T01:07:42.376Z,89.99
2022-08-26T01:12:15.506Z,90.00
2022-08-26T01:17:08.908Z,90.00
2022-08-26T01:21:47.819Z,90.17
2022-08-26T01:26:23.127Z,90.23
2022-08-26T01:31:10.101Z,90.26
2022-08-26T01:36:00.893Z,90.46
2022-08-26T01:40:33.782Z,90.63
2022-08-26T01:45:20.461Z,90.60
2022-08-26T01:50:06.858Z,90.89
2022-08-26T01:54:40.839Z,91.47
2022-08-26T01:59:31.286Z,91.53
2022-08-26T02:04:17.720Z,91.54
2022-08-26T02:08:47.877Z,91.74
2022-08-26T02:13:21.513Z,91.86
2022-08-26T02:17:55.387Z,91.29
2022-08-26T02:22:30.600Z,91.74
2022-08-26T02:27:03.577Z,91.93
2022-08-26T02:31:29.489Z,91.80
2022-08-26T02:36:02.236Z,91.72
2022-08-26T02:40:44.939Z,91.69
2022-08-26T02:45:31.284Z,91.80
2022-08-26T02:50:36.647Z,91.93
2022-08-26T02:55:08.939Z,91.54
2022-08-26T03:04:29.113Z,91.40
2022-08-26T03:13:53.621Z,91.36
2022-08-26T03:18:19.594Z,91.24
2022-08-26T03:22:51.886Z,91.25
2022-08-26T03:27:19.138Z,91.44
2022-08-26T03:32:05.979Z,91.35
2022-08-26T03:41:39.219Z,91.39
2022-08-26T03:46:26.748Z,91.42
2022-08-26T03:50:52.791Z,91.15
2022-08-26T03:55:39.865Z,91.41
2022-08-26T03:59:43.937Z,91.25
2022-08-26T04:04:22.763Z,91.32
2022-08-26T04:08:29.336Z,91.32
2022-08-26T04:13:03.588Z,91.20
2022-08-26T04:17:24.810Z,91.25
2022-08-26T04:21:39.056Z,91.23
2022-08-26T04:26:04.658Z,91.26
2022-08-26T04:30:31.268Z,91.28
2022-08-26T04:35:17.869Z,91.41
2022-08-26T04:39:50.345Z,91.52
2022-08-26T04:44:16.687Z,91.46
2022-08-26T04:48:30.155Z,91.38
2022-08-26T04:52:56.173Z,91.33
2022-08-26T04:57:22.782Z,91.28
2022-08-26T05:01:55.884Z,91.12
2022-08-26T05:06:28.825Z,91.15
2022-08-26T05:11:22.168Z,90.93
2022-08-26T05:15:55.741Z,90.71
2022-08-26T05:20:40.796Z,90.22
2022-08-26T05:25:27.907Z,90.08
2022-08-26T05:30:02.263Z,90.02
2022-08-26T05:34:35.885Z,89.93
2022-08-26T05:39:24.952Z,89.48
2022-08-26T05:43:58.818Z,89.49
2022-08-26T05:48:26.441Z,89.27
2022-08-26T05:53:13.035Z,88.77
2022-08-26T05:57:46.427Z,88.06
2022-08-26T06:02:21.413Z,87.37
2022-08-26T06:06:57.121Z,86.48
2022-08-26T06:11:32.584Z,85.69
2022-08-26T06:16:22.454Z,85.02
2022-08-26T06:20:57.677Z,84.79
2022-08-26T06:25:29.460Z,84.76
2022-08-26T06:30:08.486Z,84.51
2022-08-26T06:34:21.679Z,84.46
2022-08-26T06:38:55.356Z,83.78
2022-08-26T06:43:41.849Z,82.67
2022-08-26T06:48:29.071Z,81.44
2022-08-26T06:53:02.626Z,81.59
2022-08-26T06:57:39.713Z,81.68
2022-08-26T07:02:17.816Z,81.74
2022-08-26T07:06:52.467Z,81.79
2022-08-26T07:11:18.956Z,82.22
2022-08-26T07:16:02.886Z,82.61
2022-08-26T07:20:37.000Z,82.83
2022-08-26T07:25:10.044Z,82.39
2022-08-26T07:29:43.609Z,82.89
2022-08-26T07:34:16.952Z,82.75
2022-08-26T07:38:45.888Z,81.34
2022-08-26T07:43:19.055Z,80.94
2022-08-26T07:47:57.825Z,80.18
2022-08-26T07:52:27.232Z,79.84
2022-08-26T07:57:00.939Z,80.36
2022-08-26T08:01:33.116Z,80.00
2022-08-26T08:06:11.052Z,79.98
2022-08-26T08:10:38.992Z,79.52
2022-08-26T08:15:04.930Z,79.61
2022-08-26T08:19:39.181Z,78.61
2022-08-26T08:24:12.351Z,77.78
2022-08-26T08:28:45.276Z,76.73
2022-08-26T08:33:34.756Z,76.63
2022-08-26T08:38:21.788Z,76.23
2022-08-26T08:42:44.715Z,76.15
2022-08-26T08:47:17.645Z,76.40
2022-08-26T08:52:14.204Z,77.35
2022-08-26T08:57:09.646Z,77.87
2022-08-26T09:01:41.366Z,78.26
2022-08-26T09:06:14.530Z,77.26
2022-08-26T09:10:42.208Z,76.13
2022-08-26T09:15:15.385Z,75.14
2022-08-26T09:19:55.195Z,75.47
2022-08-26T09:24:28.582Z,74.75
2022-08-26T09:29:01.666Z,75.27
2022-08-26T09:33:45.897Z,75.22
2022-08-26T09:38:18.741Z,75.35
2022-08-26T09:42:45.766Z,75.66
2022-08-26T09:47:15.403Z,75.00
2022-08-26T09:52:03.910Z,75.20
2022-08-26T09:56:35.419Z,74.46
2022-08-26T10:01:01.756Z,73.13
2022-08-26T10:05:36.554Z,72.39
2022-08-26T10:14:57.093Z,71.45
2022-08-26T10:19:41.583Z,71.90
2022-08-26T10:24:15.855Z,71.55
2022-08-26T10:28:49.244Z,70.39
2022-08-26T10:33:30.999Z,70.49
2022-08-26T10:38:04.929Z,70.39
2022-08-26T10:42:31.398Z,71.01
2022-08-26T10:47:18.497Z,71.18
2022-08-26T10:51:46.098Z,71.53
2022-08-26T10:56:32.161Z,71.56
2022-08-26T11:01:27.172Z,71.24
2022-08-26T11:06:07.803Z,71.14
2022-08-26T11:10:32.991Z,71.15
2022-08-26T11:15:01.002Z,71.37
2022-08-26T11:20:00.118Z,71.79
2022-08-26T11:24:26.577Z,71.89
2022-08-26T11:29:21.876Z,72.45
2022-08-26T11:33:41.099Z,72.65
2022-08-26T11:38:13.540Z,73.25
2022-08-26T11:42:45.539Z,73.81
2022-08-26T11:47:33.905Z,74.01
2022-08-26T11:52:12.481Z,74.02
2022-08-26T11:57:12.098Z,74.44
2022-08-26T12:01:51.716Z,74.59
2022-08-26T12:06:24.611Z,74.94
2022-08-26T12:11:03.429Z,74.72
2022-08-26T12:15:42.502Z,74.21
2022-08-26T12:20:07.256Z,74.32
2022-08-26T12:24:40.332Z,74.51
2022-08-26T12:29:26.512Z,74.37
2022-08-26T12:34:13.105Z,74.52
2022-08-26T12:39:05.170Z,74.34
2022-08-26T12:43:41.637Z,74.21
2022-08-26T12:48:19.740Z,74.40
2022-08-26T12:53:11.430Z,74.36
2022-08-26T12:57:44.659Z,74.43
2022-08-26T13:02:18.320Z,74.48
2022-08-26T13:06:58.166Z,74.70
2022-08-26T13:11:44.321Z,75.46
2022-08-26T13:16:17.923Z,75.66
2022-08-26T13:20:50.930Z,75.98
2022-08-26T13:25:24.071Z,76.13
2022-08-26T13:29:57.015Z,76.44
2022-08-26T13:34:46.190Z,76.89
2022-08-26T13:39:15.800Z,77.28
2022-08-26T13:44:02.935Z,77.96
2022-08-26T13:48:36.772Z,78.58
2022-08-26T13:53:27.977Z,78.71
2022-08-26T13:58:01.029Z,78.42
2022-08-26T14:02:24.308Z,78.26
2022-08-26T14:07:11.296Z,78.22
2022-08-26T14:11:59.927Z,77.80
2022-08-26T14:16:58.788Z,77.52
2022-08-26T14:26:28.390Z,76.91
2022-08-26T14:30:44.098Z,76.48
2022-08-26T14:35:06.946Z,76.09
2022-08-26T14:39:35.038Z,76.07
2022-08-26T14:44:08.755Z,75.93
2022-08-26T14:48:41.968Z,76.30
2022-08-26T14:53:15.732Z,76.29
2022-08-26T14:58:18.191Z,76.29
2022-08-26T15:02:53.620Z,76.41
2022-08-26T15:07:22.944Z,76.50
2022-08-26T15:11:56.356Z,76.15
2022-08-26T15:16:30.874Z,76.13
2022-08-26T15:21:05.349Z,76.22
2022-08-26T15:25:39.319Z,76.56
2022-08-26T15:30:01.801Z,76.78
2022-08-26T15:34:34.566Z,76.83
2022-08-26T15:39:21.065Z,76.93
2022-08-26T15:44:01.291Z,77.02
2022-08-26T15:48:44.523Z,77.34
2022-08-26T15:53:11.477Z,77.49
2022-08-26T15:57:44.908Z,77.70
2022-08-26T16:02:20.546Z,77.78
2022-08-26T16:06:53.278Z,77.90
2022-08-26T16:11:27.186Z,78.07
2022-08-26T16:16:00.118Z,78.33
2022-08-26T16:20:37.878Z,78.49
2022-08-26T16:25:25.207Z,78.90
2022-08-26T16:30:00.047Z,79.01
2022-08-26T16:34:57.511Z,79.45
2022-08-26T16:39:33.766Z,79.82
2022-08-26T16:44:14.604Z,79.87
2022-08-26T16:48:36.690Z,79.93
2022-08-26T16:52:57.413Z,79.75
2022-08-26T16:57:30.796Z,79.69
2022-08-26T17:02:04.533Z,79.82
2022-08-26T17:06:39.439Z,80.30
2022-08-26T17:10:59.237Z,80.82
2022-08-26T17:15:39.935Z,81.40
2022-08-26T17:20:24.013Z,81.46
2022-08-26T17:25:03.950Z,81.47
2022-08-26T17:29:36.267Z,81.52
2022-08-26T17:33:53.909Z,81.68
2022-08-26T17:38:17.550Z,81.76
2022-08-26T17:42:59.104Z,81.92
2022-08-26T17:47:46.037Z,81.90
2022-08-26T17:52:11.757Z,81.89
2022-08-26T17:56:51.122Z,82.11
2022-08-26T18:01:28.259Z,82.53
2022-08-26T18:06:20.108Z,83.11
2022-08-26T18:10:50.831Z,83.42
2022-08-26T18:15:16.239Z,83.60
2022-08-26T18:19:50.144Z,83.75
2022-08-26T18:24:23.172Z,83.94
2022-08-26T18:28:51.200Z,83.98
2022-08-26T18:33:35.683Z,84.12
2022-08-26T18:38:13.736Z,84.07
2022-08-26T18:42:54.345Z,83.93
2022-08-26T18:47:28.434Z,83.94
2022-08-26T18:52:19.847Z,83.85
2022-08-26T18:56:50.050Z,83.73
2022-08-26T19:01:02.829Z,83.54
2022-08-26T19:04:25.540Z,83.37
2022-08-26T19:08:46.634Z,83.23
2022-08-26T19:13:00.816Z,83.02
2022-08-26T19:17:25.568Z,82.94
2022-08-26T19:22:06.882Z,82.98
2022-08-26T19:26:01.177Z,83.11
2022-08-26T19:29:53.320Z,83.04
2022-08-26T19:33:30.028Z,83.07
2022-08-26T19:38:05.683Z,83.29
2022-08-26T19:42:06.931Z,83.45
2022-08-26T19:46:22.659Z,83.57
2022-08-26T19:51:01.333Z,83.85
2022-08-26T20:00:40.809Z,84.09
2022-08-26T20:05:14.154Z,84.12
2022-08-26T20:09:45.258Z,84.22
2022-08-26T20:14:22.963Z,84.34
2022-08-26T20:19:19.704Z,84.37
2022-08-26T20:23:58.188Z,84.53
2022-08-26T20:28:33.643Z,84.71
2022-08-26T20:33:07.689Z,84.89
2022-08-26T20:37:54.837Z,85.00
2022-08-26T20:42:23.954Z,85.04
2022-08-26T20:47:05.237Z,84.91
2022-08-26T20:51:38.895Z,84.77
2022-08-26T20:56:13.585Z,84.58
2022-08-26T21:00:49.483Z,84.32
2022-08-26T21:05:37.866Z,84.00
2022-08-26T21:10:12.458Z,83.38
2022-08-26T21:14:52.453Z,81.36
2022-08-26T21:19:26.557Z,79.85
2022-08-26T21:24:01.744Z,78.06
2022-08-26T21:28:37.025Z,76.89
2022-08-26T21:33:11.430Z,75.95
2022-08-26T21:38:00.070Z,75.12
2022-08-26T21:42:35.483Z,74.43
2022-08-26T21:47:12.219Z,73.74
2022-08-26T21:51:47.196Z,73.15
2022-08-26T21:56:15.057Z,72.95
2022-08-26T22:00:58.393Z,73.18
2022-08-26T22:05:32.478Z,73.30
2022-08-26T22:10:20.598Z,74.04
2022-08-26T22:14:54.305Z,76.42
2022-08-26T22:19:27.897Z,76.61
2022-08-26T22:24:02.065Z,75.35
2022-08-26T22:28:36.936Z,75.82
2022-08-26T22:33:11.220Z,79.12
2022-08-26T22:37:39.445Z,78.27
2022-08-26T22:42:13.099Z,77.09
2022-08-26T22:46:45.438Z,77.05
2022-08-26T22:51:10.925Z,77.20
2022-08-26T22:55:46.945Z,77.59
2022-08-26T23:00:20.599Z,78.07
2022-08-26T23:05:02.712Z,78.29
2022-08-26T23:09:36.001Z,78.63
2022-08-26T23:14:24.877Z,78.95
2022-08-26T23:18:59.186Z,79.49
2022-08-26T23:23:32.865Z,80.01
2022-08-26T23:28:05.966Z,80.49
2022-08-26T23:32:39.309Z,81.00
2022-08-26T23:37:26.650Z,81.25
2022-08-26T23:41:59.648Z,81.58
2022-08-26T23:56:05.688Z,82.65
